PST,Max TemperatureF,Mean TemperatureF,Min TemperatureF,Max Dew PointF,MeanDew PointF,Min DewpointF,Max Humidity, Mean Humidity, Min Humidity, Max Sea Level PressureIn, Mean Sea Level PressureIn, Min Sea Level PressureIn, Max VisibilityMiles, Mean VisibilityMiles, Min VisibilityMiles, Max Wind SpeedMPH, Mean Wind SpeedMPH, Max Gust SpeedMPH,PrecipitationIn, CloudCover, Events, WindDirDegrees
2014-1-1,44,42,39,45,41,39,100,98,93,30.41,30.36,30.27,10,4,0,6,2,,0.00,8,Fog-Rain,8
2014-1-2,50,46,41,46,41,39,100,86,66,30.27,30.12,29.98,10,8,0,10,5,17,0.09,7,Fog-Rain,196
2014-1-3,48,40,30,41,35,30,100,91,66,30.39,30.24,30.09,10,8,0,9,3,,0.01,5,Fog-Rain,234
2014-1-4,41,34,26,39,31,27,100,99,87,30.48,30.44,30.39,10,2,0,6,1,,0.00,7,Fog,199
2014-1-5,41,34,26,37,32,27,100,96,81,30.51,30.43,30.31,10,6,0,7,2,,0.00,4,Fog,11
2014-1-6,39,32,26,36,32,27,100,91,75,30.31,30.22,30.16,10,7,0,10,3,,0.18,5,Fog-Rain,209
2014-1-7,46,42,37,45,42,36,100,96,87,30.16,30.07,30.02,10,9,2,13,8,20,0.28,8,Rain,186
2014-1-8,50,47,42,48,45,39,100,95,81,30.04,29.90,29.76,10,8,3,14,7,24,0.47,7,Rain,195
2014-1-9,48,44,39,46,41,37,100,93,87,30.05,29.96,29.82,10,9,2,20,8,25,0.11,6,Rain,198
2014-1-10,50,47,44,48,46,43,100,95,87,30.17,29.99,29.64,10,6,2,22,8,34,0.35,7,Rain,181
2014-1-11,51,46,42,50,43,37,100,87,76,29.97,29.60,29.46,10,7,2,28,14,44,0.63,7,Rain,212
2014-1-12,50,46,41,50,44,37,100,94,76,30.43,30.19,29.98,10,5,2,18,7,25,0.36,7,Rain,206
2014-1-13,51,48,44,48,47,45,100,95,82,30.68,30.57,30.44,10,8,2,12,6,18,0.03,8,Rain,215
2014-1-14,50,46,41,46,45,41,100,97,87,30.69,30.65,30.59,10,6,0,6,1,,0.00,7,Fog,57
2014-1-15,51,44,37,45,41,36,100,92,76,30.62,30.56,30.50,10,8,0,12,3,16,0.00,4,Fog,348
2014-1-16,42,40,37,41,40,37,100,99,87,30.51,30.45,30.36,10,8,2,10,5,,0.00,8,,30
2014-1-17,41,37,33,39,37,34,100,97,87,30.36,30.27,30.22,10,6,1,9,6,,0.00,8,,39
2014-1-18,46,39,32,41,36,32,100,94,76,30.30,30.24,30.18,10,7,0,7,4,,0.00,5,Fog,214
2014-1-19,41,38,35,39,38,36,100,97,93,30.31,30.24,30.18,10,5,0,9,2,,0.00,8,Fog,32
2014-1-20,39,36,32,37,36,32,100,97,87,30.35,30.31,30.28,10,5,0,10,5,,0.00,7,Fog,31
2014-1-21,50,40,30,41,35,30,100,87,58,30.38,30.31,30.26,10,7,0,9,3,,0.00,4,Fog,195
2014-1-22,48,44,39,43,40,36,100,90,81,30.43,30.40,30.36,10,8,2,12,4,,0.00,8,Rain,321
2014-1-23,50,41,32,41,38,32,100,88,71,30.45,30.41,30.38,10,8,0,14,7,20,0.00,5,Fog,13
2014-1-24,39,36,32,39,35,32,100,100,93,30.43,30.37,30.30,3,0,0,7,2,,0.01,8,Fog,89
2014-1-25,55,42,28,41,33,28,100,90,51,30.40,30.34,30.28,10,8,0,7,2,,0.01,1,Fog,218
2014-1-26,48,38,28,41,33,28,100,96,71,30.28,30.19,30.11,10,3,0,7,1,,0.00,6,Fog,26
2014-1-27,42,36,30,37,33,30,100,88,66,30.24,30.19,30.14,10,6,0,6,2,,0.00,4,Fog-Rain,125
2014-1-28,53,47,41,46,40,36,100,85,62,30.25,30.15,29.92,10,7,2,12,3,16,0.16,7,Rain,171
2014-1-29,51,48,44,48,45,41,100,93,81,29.91,29.79,29.64,10,8,2,17,9,28,0.13,8,Rain,201
2014-1-30,50,44,39,41,39,37,100,88,62,29.96,29.94,29.91,10,9,2,12,7,23,0.23,7,Rain,203
2014-1-31,48,42,35,43,39,36,100,92,76,30.18,30.08,29.96,10,7,0,8,4,,0.01,7,Fog-Rain,189